Time;durP1;ratioP1;P1;durP2;ratioP2;P2;SDS_P1;SDS_P2;PMS_P1;PMS_P2;Temp;Humidity;BMP_temperature;BMP_pressure;BME280_temperature;BME280_humidity;BME280_pressure;Samples;Min_cycle;Max_cycle;Signal;HPM_P1;HPM_P2
2022/01/07 05:02:38;;;;;;;8.13;3.62;;;;;;;-4.44;87.18;100506.50;4507499;31;151081;-75
2022/01/07 05:05:25;;;;;;;10.23;4.03;;;;;;;-4.44;87.18;100506.50;4506329;31;33966;-75
2022/01/07 05:08:11;;;;;;;7.25;3.28;;;;;;;-4.54;86.23;100521.00;4491195;31;35511;-75
2022/01/07 05:10:57;;;;;;;9.48;3.20;;;;;;;-5.00;85.46;100517.84;4504097;31;34814;-75
2022/01/07 05:13:43;;;;;;;9.93;3.78;;;;;;;-4.95;86.47;100519.94;4499348;31;35430;-75
2022/01/07 05:16:29;;;;;;;6.78;2.97;;;;;;;-4.70;84.52;100513.22;4501507;31;35128;-76
2022/01/07 05:19:15;;;;;;;5.45;2.45;;;;;;;-3.90;81.90;100509.44;4503702;31;34691;-75
2022/01/07 05:22:01;;;;;;;8.63;3.22;;;;;;;-3.15;77.29;100509.66;4502486;31;35018;-76
2022/01/07 05:24:48;;;;;;;13.30;4.22;;;;;;;-2.56;75.05;100511.69;4500121;31;34431;-75
2022/01/07 05:27:34;;;;;;;7.75;3.35;;;;;;;-2.29;72.88;100507.16;4507239;31;35092;-76
2022/01/07 05:30:21;;;;;;;9.68;3.80;;;;;;;-2.35;72.73;100512.53;4504885;31;35491;-76
2022/01/07 05:33:07;;;;;;;7.40;3.20;;;;;;;-2.05;71.28;100513.81;4501839;31;35027;-76
2022/01/07 05:35:53;;;;;;;8.82;2.95;;;;;;;-2.07;71.05;100515.03;4479214;31;35259;-76
2022/01/07 05:38:40;;;;;;;10.07;4.03;;;;;;;-2.15;71.55;100517.94;4492926;31;34050;-76
2022/01/07 05:41:26;;;;;;;11.00;3.47;;;;;;;-2.13;70.41;100522.06;4502291;31;34694;-76
2022/01/07 05:44:13;;;;;;;9.30;3.62;;;;;;;-2.34;70.44;100514.19;4488877;31;34894;-75
2022/01/07 05:46:59;;;;;;;10.38;3.15;;;;;;;-3.63;73.92;100515.78;4504481;31;35369;-75
2022/01/07 05:49:46;;;;;;;8.52;3.50;;;;;;;-2.66;72.29;100524.66;4503751;31;34911;-76
2022/01/07 05:52:32;;;;;;;9.45;3.65;;;;;;;-2.44;69.90;100525.34;4499402;31;35605;-75
2022/01/07 05:55:19;;;;;;;9.05;3.70;;;;;;;-2.58;70.53;100532.53;4488671;31;35950;-75
2022/01/07 05:58:05;;;;;;;10.43;4.57;;;;;;;-2.23;69.66;100528.87;4501482;31;34602;-75
2022/01/07 06:00:51;;;;;;;7.97;3.50;;;;;;;-2.20;69.20;100528.44;4500327;31;34804;-75
2022/01/07 06:03:39;;;;;;;10.88;3.78;;;;;;;-4.52;77.69;100531.53;4501187;31;35488;-75
2022/01/07 06:06:25;;;;;;;9.43;3.85;;;;;;;-3.48;74.32;100520.19;4496830;31;35953;-75
2022/01/07 06:09:12;;;;;;;12.25;4.25;;;;;;;-3.03;71.85;100536.72;4499208;31;34497;-75
2022/01/07 06:11:58;;;;;;;10.82;3.90;;;;;;;-3.56;73.87;100531.06;4485673;31;34166;-75
2022/01/07 06:14:44;;;;;;;9.23;3.28;;;;;;;-2.96;71.87;100545.59;4490469;31;35130;-75
2022/01/07 06:17:30;;;;;;;8.50;3.95;;;;;;;-2.78;70.24;100543.19;4486208;31;34704;-75
2022/01/07 06:20:18;;;;;;;10.07;3.58;;;;;;;-2.80;69.83;100547.94;4489659;31;34639;-75
2022/01/07 06:23:06;;;;;;;8.20;4.18;;;;;;;-2.61;69.33;100540.16;4488738;31;34191;-75
2022/01/07 06:25:53;;;;;;;12.90;4.62;;;;;;;-2.92;70.65;100544.19;4491602;31;34725;-75
2022/01/07 06:28:39;;;;;;;11.27;4.28;;;;;;;-2.83;69.65;100548.34;4493338;31;35054;-75
2022/01/07 06:31:25;;;;;;;9.27;4.50;;;;;;;-2.89;69.65;100551.81;4474395;31;34513;-76
2022/01/07 06:34:12;;;;;;;11.10;5.15;;;;;;;-2.92;69.82;100543.38;4489916;31;35010;-75
2022/01/07 06:37:02;;;;;;;9.00;4.15;;;;;;;-2.82;70.14;100554.53;4486125;31;34776;-75
2022/01/07 06:39:48;;;;;;;9.52;4.05;;;;;;;-2.77;69.38;100557.44;4473892;31;35682;-75
2022/01/07 06:42:34;;;;;;;11.85;5.62;;;;;;;-2.74;69.73;100554.34;4490510;31;37075;-75
2022/01/07 06:45:21;;;;;;;13.60;5.40;;;;;;;-2.79;69.67;100572.91;4485766;31;34788;-76
2022/01/07 06:48:07;;;;;;;12.27;4.70;;;;;;;-2.76;69.77;100554.56;4487004;31;34699;-76
2022/01/07 06:50:53;;;;;;;12.93;5.05;;;;;;;-3.08;71.57;100565.97;4484324;31;34972;-76
2022/01/07 06:53:40;;;;;;;11.90;5.22;;;;;;;-2.86;70.58;100570.19;4479164;31;35353;-75
2022/01/07 06:56:28;;;;;;;14.23;5.05;;;;;;;-3.87;74.54;100556.38;4491778;31;34035;-76
2022/01/07 06:59:17;;;;;;;12.43;5.10;;;;;;;-3.20;71.99;100579.09;4478969;31;34654;-76
2022/01/07 07:02:03;;;;;;;16.10;7.60;;;;;;;-3.21;71.76;100562.19;4473748;31;36075;-75
2022/01/07 07:04:50;;;;;;;19.20;7.95;;;;;;;-3.91;75.57;100563.16;4489977;31;34298;-75
2022/01/07 07:07:37;;;;;;;21.40;9.40;;;;;;;-2.87;71.74;100578.47;4488042;31;34100;-75
2022/01/07 07:10:23;;;;;;;13.65;6.05;;;;;;;-2.86;70.55;100577.41;4489481;31;34718;-75
2022/01/07 15:17:23;;;;;;;153.57;54.05;;;;;;;3.09;46.69;100289.75;5310289;26;196827;-75
2022/01/07 15:20:10;;;;;;;149.40;52.10;;;;;;;3.20;46.56;100293.47;5319373;27;34527;-75
2022/01/07 15:22:57;;;;;;;130.50;48.58;;;;;;;3.15;46.82;100302.31;5321393;27;34000;-75
2022/01/07 15:25:43;;;;;;;71.45;25.00;;;;;;;3.13;46.90;100300.91;5321260;27;34308;-74
2022/01/07 15:28:29;;;;;;;47.95;18.10;;;;;;;2.91;47.34;100303.53;5322918;27;34893;-76
2022/01/07 15:31:24;;;;;;;29.05;11.00;;;;;;;2.96;47.62;100305.50;5322832;27;34626;-76
2022/01/07 15:34:10;;;;;;;23.20;9.38;;;;;;;2.84;47.88;100308.28;5323329;27;33870;-76
2022/01/07 15:36:57;;;;;;;17.60;9.23;;;;;;;2.74;48.10;100308.09;5324376;27;34720;-76
2022/01/07 15:39:44;;;;;;;23.08;9.52;;;;;;;2.57;48.72;100303.47;5307372;27;34293;-76
2022/01/07 15:42:30;;;;;;;20.98;8.95;;;;;;;2.47;49.12;100308.69;5323698;27;34548;-76
2022/01/07 15:45:18;;;;;;;24.52;9.40;;;;;;;2.46;49.18;100309.75;5307832;27;34219;-76
2022/01/07 15:48:05;;;;;;;19.60;8.85;;;;;;;2.35;49.40;100307.91;5324052;27;34647;-76
2022/01/07 15:50:51;;;;;;;25.80;10.18;;;;;;;2.11;50.06;100299.88;5323595;27;34596;-76
2022/01/07 15:53:38;;;;;;;20.40;9.25;;;;;;;2.06;50.27;100302.47;5324024;27;34150;-76
2022/01/07 15:56:24;;;;;;;17.70;9.38;;;;;;;2.09;50.32;100304.69;5322210;27;34885;-75
2022/01/07 15:59:11;;;;;;;22.98;9.70;;;;;;;2.05;50.41;100299.97;5305709;27;34652;-76
2022/01/07 16:01:57;;;;;;;26.77;13.48;;;;;;;2.06;50.42;100294.34;5307716;27;36086;-76
2022/01/07 16:04:44;;;;;;;28.70;14.43;;;;;;;2.11;50.24;100302.56;5295473;27;34477;-78
2022/01/07 16:07:30;;;;;;;28.85;12.60;;;;;;;2.00;50.43;100301.53;5327067;27;35140;-78
2022/01/07 16:10:16;;;;;;;45.00;16.10;;;;;;;1.58;51.78;100308.97;5306061;27;34718;-77
2022/01/07 16:13:03;;;;;;;139.88;42.75;;;;;;;0.53;55.44;100302.31;5306069;27;35158;-78
2022/01/07 16:15:50;;;;;;;122.07;41.15;;;;;;;1.07;54.23;100300.47;5305602;27;35393;-78
2022/01/07 16:18:37;;;;;;;104.45;37.90;;;;;;;1.62;52.74;100306.62;5320512;27;34374;-75
2022/01/07 16:21:24;;;;;;;81.37;30.40;;;;;;;1.57;52.77;100299.25;5303481;27;35577;-76
2022/01/07 16:24:10;;;;;;;77.05;28.83;;;;;;;1.80;52.04;100303.81;5303758;27;34934;-75
2022/01/07 16:26:56;;;;;;;56.70;24.65;;;;;;;1.74;52.03;100299.34;5320799;27;35550;-77
2022/01/07 16:29:43;;;;;;;64.00;27.17;;;;;;;1.64;51.89;100299.91;5319234;27;34044;-77
2022/01/07 16:32:32;;;;;;;68.75;28.92;;;;;;;1.00;52.73;100297.06;5302437;27;34756;-77
2022/01/07 16:35:18;;;;;;;69.80;28.83;;;;;;;1.03;53.87;100298.50;5301654;27;35658;-76
2022/01/07 16:38:05;;;;;;;68.25;28.23;;;;;;;1.13;53.48;100293.31;5300133;27;34803;-77
2022/01/07 16:40:51;;;;;;;60.90;26.52;;;;;;;1.32;53.24;100292.19;5317785;27;34162;-77
2022/01/07 16:43:42;;;;;;;62.53;25.85;;;;;;;1.41;53.24;100299.94;5319451;27;34246;-77
2022/01/07 16:46:29;;;;;;;49.67;23.00;;;;;;;1.20;53.92;100302.16;5302450;27;35617;-77
2022/01/07 16:49:16;;;;;;;51.95;23.60;;;;;;;1.44;53.34;100304.87;5287177;27;36012;-76
2022/01/07 16:52:22;;;;;;;52.55;25.10;;;;;;;1.17;53.95;100296.38;5318948;27;35218;-77
2022/01/07 16:55:16;;;;;;;66.37;27.42;;;;;;;0.79;54.78;100303.81;5319114;27;34176;-77
2022/01/07 16:58:03;;;;;;;58.70;28.33;;;;;;;1.13;54.69;100309.53;5318146;27;35045;-78
2022/01/07 17:00:49;;;;;;;62.38;29.12;;;;;;;1.28;54.21;100301.81;5318904;27;34669;-77
2022/01/07 17:03:40;;;;;;;63.63;31.42;;;;;;;1.14;54.50;100305.78;5319303;27;33904;-78
2022/01/07 17:06:30;;;;;;;68.45;35.10;;;;;;;1.14;54.33;100305.78;5287321;27;34655;-78
2022/01/07 17:09:17;;;;;;;69.85;36.40;;;;;;;1.21;54.23;100300.28;5319540;27;35143;-77
2022/01/07 17:12:04;;;;;;;70.93;38.78;;;;;;;0.82;55.42;100297.94;5287794;27;34590;-77
2022/01/07 17:14:50;;;;;;;78.40;39.22;;;;;;;0.72;55.74;100300.41;5302699;27;34239;-77
2022/01/07 17:17:40;;;;;;;67.32;34.65;;;;;;;0.44;56.51;100301.81;5318302;27;34774;-77
2022/01/07 17:20:26;;;;;;;81.87;40.88;;;;;;;0.21;57.19;100296.31;5302276;27;35910;-77
2022/01/07 17:23:15;;;;;;;83.62;39.95;;;;;;;0.05;57.89;100302.31;5302614;27;34632;-76
2022/01/07 17:26:01;;;;;;;94.07;46.22;;;;;;;-0.20;59.04;100300.50;5302038;27;35164;-76
2022/01/07 17:28:50;;;;;;;97.85;47.60;;;;;;;0.18;58.24;100294.91;5302381;27;35352;-77
2022/01/07 17:31:36;;;;;;;105.78;50.50;;;;;;;0.51;56.69;100301.72;5302713;27;35962;-77
2022/01/07 17:34:23;;;;;;;112.78;53.58;;;;;;;-0.08;58.71;100303.31;5319409;27;35974;-77
2022/01/07 17:37:09;;;;;;;104.43;51.10;;;;;;;-0.19;58.62;100295.97;5318582;27;35295;-77
2022/01/07 17:40:00;;;;;;;97.97;46.03;;;;;;;0.01;58.95;100291.19;5318862;27;34833;-77
2022/01/07 17:42:46;;;;;;;88.57;42.70;;;;;;;-0.04;58.95;100294.53;5318484;27;34976;-78
2022/01/07 17:45:33;;;;;;;90.20;39.65;;;;;;;0.24;58.37;100285.09;5302348;27;34594;-76
2022/01/07 17:48:19;;;;;;;73.53;35.45;;;;;;;0.27;58.08;100290.03;5301629;27;33772;-77
2022/01/07 17:51:08;;;;;;;133.57;50.65;;;;;;;0.20;58.29;100289.31;5301665;27;34743;-78
2022/01/07 17:53:56;;;;;;;103.30;42.80;;;;;;;-0.33;60.20;100289.91;5318574;27;35119;-77
2022/01/07 17:56:42;;;;;;;96.15;38.35;;;;;;;-1.07;62.72;100289.75;5318978;27;34624;-77
2022/01/07 17:59:29;;;;;;;95.62;38.28;;;;;;;-0.96;62.35;100290.91;5302131;27;33762;-78
2022/01/07 18:02:15;;;;;;;91.70;39.08;;;;;;;-0.70;61.82;100287.16;5318002;27;34779;-78
2022/01/07 18:05:02;;;;;;;91.25;38.17;;;;;;;-1.56;64.07;100290.50;5318475;27;35916;-78
2022/01/07 18:07:48;;;;;;;87.65;35.95;;;;;;;-1.77;64.85;100289.75;5301441;27;35124;-78
2022/01/07 18:10:35;;;;;;;91.90;37.75;;;;;;;-2.38;66.80;100292.88;5317881;27;34240;-78
2022/01/07 18:13:21;;;;;;;77.10;31.87;;;;;;;-2.14;66.75;100294.84;5300971;27;34446;-78
2022/01/07 18:16:25;;;;;;;70.60;28.27;;;;;;;-2.26;68.97;100289.31;5317906;27;36065;-78
2022/01/07 18:19:12;;;;;;;61.65;21.15;;;;;;;-2.44;68.37;100285.66;5301255;27;34704;-78
2022/01/07 18:21:59;;;;;;;66.35;24.48;;;;;;;-3.27;70.19;100283.44;5317748;27;34786;-78
2022/01/07 18:24:46;;;;;;;48.80;19.95;;;;;;;-3.75;72.75;100287.03;5316876;27;34788;-78
2022/01/07 18:27:36;;;;;;;61.60;22.20;;;;;;;-3.42;72.70;100286.28;5316784;27;36115;-78
2022/01/07 18:30:23;;;;;;;60.55;21.65;;;;;;;-2.79;68.60;100293.94;5300022;27;34207;-77
2022/01/07 18:33:09;;;;;;;52.72;20.27;;;;;;;-2.23;66.71;100295.31;5301448;27;34359;-77
2022/01/07 18:35:56;;;;;;;67.32;27.10;;;;;;;-2.18;65.48;100292.81;5317454;27;34525;-79
2022/01/07 18:38:43;;;;;;;29.17;12.48;;;;;;;-2.04;64.86;100294.41;5317160;27;35219;-78
2022/01/07 18:41:29;;;;;;;29.20;15.25;;;;;;;-3.38;67.42;100287.53;5317341;27;34533;-79
2022/01/07 18:44:18;;;;;;;48.08;21.73;;;;;;;-2.78;68.98;100291.06;5318028;27;34453;-78
2022/01/07 18:47:07;;;;;;;44.15;19.27;;;;;;;-2.33;66.96;100296.56;5301233;27;35419;-79
2022/01/07 18:49:54;;;;;;;54.38;22.92;;;;;;;-2.12;66.02;100291.97;5300749;27;34548;-79
2022/01/07 18:52:40;;;;;;;50.20;18.70;;;;;;;-3.17;69.17;100284.66;5317081;27;34571;-76
2022/01/07 18:55:28;;;;;;;35.95;17.17;;;;;;;-2.14;65.64;100299.41;5317226;27;35186;-77
2022/01/07 18:58:14;;;;;;;35.45;16.12;;;;;;;-3.15;68.66;100289.84;5317706;27;35091;-77
2022/01/07 19:01:00;;;;;;;40.83;17.50;;;;;;;-1.94;64.54;100292.09;5316935;27;35030;-77
2022/01/07 19:03:56;;;;;;;39.33;17.67;;;;;;;-1.60;63.59;100273.94;5316673;27;34527;-77
2022/01/07 19:06:42;;;;;;;44.47;20.45;;;;;;;-1.23;62.09;100272.25;5299930;27;34935;-78
2022/01/07 19:09:29;;;;;;;37.63;18.25;;;;;;;-1.23;61.49;100272.25;5316234;27;34483;-78
2022/01/07 19:12:17;;;;;;;37.03;16.50;;;;;;;-1.06;60.38;100269.84;5299054;27;35035;-77
2022/01/07 19:15:04;;;;;;;33.08;15.25;;;;;;;-1.06;60.25;100271.72;5315978;27;34267;-77
2022/01/07 19:17:52;;;;;;;39.00;16.48;;;;;;;-1.12;60.53;100269.91;5298847;27;35257;-78
2022/01/07 19:20:38;;;;;;;45.58;20.23;;;;;;;-1.15;60.94;100260.41;5299418;27;34728;-78
2022/01/07 19:23:25;;;;;;;54.47;24.15;;;;;;;-1.66;63.25;100258.69;5298435;27;34951;-78
2022/01/07 19:26:11;;;;;;;65.47;26.27;;;;;;;-1.50;62.74;100268.13;5316089;27;34496;-78
2022/01/07 19:28:58;;;;;;;56.30;25.12;;;;;;;-1.29;62.43;100267.75;5299814;27;35319;-78
2022/01/07 19:31:44;;;;;;;56.60;25.90;;;;;;;-1.89;64.07;100269.97;5298131;27;34684;-78
2022/01/07 19:34:30;;;;;;;59.38;24.27;;;;;;;-2.26;65.46;100256.28;5316440;27;35066;-78
2022/01/07 19:37:18;;;;;;;52.62;24.35;;;;;;;-1.70;63.60;100266.38;5283388;27;35360;-77
2022/01/07 19:40:05;;;;;;;58.00;23.62;;;;;;;-2.09;64.05;100270.06;5298969;27;35129;-78
2022/01/07 19:42:51;;;;;;;49.70;22.65;;;;;;;-1.85;63.79;100271.19;5298456;27;34292;-77
2022/01/07 19:45:38;;;;;;;49.63;22.35;;;;;;;-2.15;64.42;100261.00;5300363;27;34777;-78
2022/01/07 19:48:25;;;;;;;48.55;21.45;;;;;;;-1.59;62.76;100259.50;5299679;27;35414;-77
2022/01/07 19:51:11;;;;;;;50.05;22.15;;;;;;;-1.35;61.65;100255.19;5299905;27;34871;-77
2022/01/07 19:53:57;;;;;;;47.20;21.87;;;;;;;-1.33;61.14;100255.81;5300491;27;35324;-78
2022/01/07 19:56:44;;;;;;;57.10;23.25;;;;;;;-1.12;60.42;100254.59;5316975;27;35654;-78
2022/01/07 19:59:30;;;;;;;49.03;22.33;;;;;;;-1.27;60.16;100259.50;5285449;27;35480;-78
2022/01/07 20:02:19;;;;;;;52.38;22.08;;;;;;;-1.37;60.42;100259.94;5299651;27;33870;-78
2022/01/07 20:05:07;;;;;;;53.38;22.85;;;;;;;-1.33;61.09;100255.00;5317101;27;34754;-78
2022/01/07 20:07:53;;;;;;;54.13;23.52;;;;;;;-1.55;61.71;100260.69;5299895;27;35658;-78
2022/01/07 20:10:40;;;;;;;50.05;23.25;;;;;;;-1.48;61.69;100256.12;5316408;27;35508;-78
2022/01/07 20:13:26;;;;;;;55.38;24.25;;;;;;;-1.50;61.94;100257.37;5316826;27;35163;-78
2022/01/07 20:16:12;;;;;;;49.20;24.52;;;;;;;-1.40;61.86;100255.81;5316989;27;34798;-77
2022/01/07 20:18:58;;;;;;;57.00;24.02;;;;;;;-2.16;63.54;100261.19;5316803;27;35018;-78
2022/01/07 20:21:45;;;;;;;54.42;25.12;;;;;;;-2.82;66.54;100265.69;5316617;27;35552;-78
2022/01/07 20:24:34;;;;;;;54.17;24.92;;;;;;;-2.07;64.47;100254.56;5300594;27;34768;-77
2022/01/07 20:27:21;;;;;;;61.63;28.92;;;;;;;-1.70;62.86;100246.75;5300908;27;35270;-77
2022/01/07 20:30:08;;;;;;;61.63;30.25;;;;;;;-1.89;62.99;100237.75;5316841;27;35080;-77
2022/01/07 20:32:55;;;;;;;51.37;24.87;;;;;;;-1.85;62.93;100236.25;5300216;27;34502;-77
2022/01/07 20:35:42;;;;;;;59.03;26.50;;;;;;;-1.60;61.88;100233.66;5300573;27;33992;-77
2022/01/07 20:38:29;;;;;;;56.90;24.85;;;;;;;-2.01;62.99;100234.91;5317306;27;35635;-77
2022/01/07 20:41:19;;;;;;;66.15;29.58;;;;;;;-1.94;63.12;100230.31;5300448;27;34904;-77
2022/01/07 20:44:09;;;;;;;66.07;29.27;;;;;;;-1.99;63.18;100222.09;5317390;27;34714;-77
2022/01/07 20:46:55;;;;;;;69.72;31.25;;;;;;;-2.21;64.20;100239.56;5300801;27;35142;-77
2022/01/07 20:49:41;;;;;;;64.65;28.98;;;;;;;-2.44;65.42;100243.53;5300963;27;34545;-77
2022/01/07 20:52:30;;;;;;;70.85;31.17;;;;;;;-2.58;65.43;100240.06;5318261;27;35087;-77
2022/01/07 20:55:17;;;;;;;67.57;29.70;;;;;;;-2.37;65.91;100235.47;5302115;27;35550;-77
2022/01/07 20:58:04;;;;;;;63.20;29.00;;;;;;;-2.71;66.62;100232.84;5317885;27;35768;-77
2022/01/07 21:00:50;;;;;;;66.80;28.25;;;;;;;-3.44;69.49;100224.06;5299765;27;35562;-78
2022/01/07 21:03:41;;;;;;;72.15;31.17;;;;;;;-3.35;69.47;100217.47;5317948;27;36039;-78
2022/01/07 21:06:28;;;;;;;103.93;43.65;;;;;;;-2.63;67.20;100218.41;5302448;27;35435;-78
2022/01/07 21:09:15;;;;;;;139.23;57.58;;;;;;;-2.30;64.91;100215.62;5286180;27;35132;-77
2022/01/07 21:12:01;;;;;;;166.15;60.38;;;;;;;-2.41;65.33;100208.22;5317713;27;35599;-78
2022/01/07 21:14:47;;;;;;;206.50;71.60;;;;;;;-2.28;65.15;100218.06;5302286;27;34803;-77
2022/01/07 21:17:35;;;;;;;193.45;69.12;;;;;;;-2.22;64.05;100213.72;5300657;27;34608;-78
2022/01/07 21:20:21;;;;;;;174.68;63.28;;;;;;;-2.33;64.43;100216.06;5301332;27;33841;-77
2022/01/07 21:23:07;;;;;;;99.90;41.75;;;;;;;-2.40;64.70;100212.56;5301359;27;35527;-77
2022/01/07 21:25:54;;;;;;;82.93;34.38;;;;;;;-2.31;64.46;100213.97;5301014;27;35984;-77
2022/01/07 21:28:43;;;;;;;70.10;31.12;;;;;;;-2.42;65.41;100213.78;5318888;27;35096;-77
2022/01/07 21:31:29;;;;;;;63.53;28.87;;;;;;;-2.28;64.77;100213.56;5301819;27;34226;-77
2022/01/07 21:34:16;;;;;;;68.50;28.27;;;;;;;-2.43;65.56;100214.84;5318555;27;34904;-78
2022/01/07 21:37:02;;;;;;;72.18;31.85;;;;;;;-2.41;65.43;100216.28;5318121;27;34981;-77
2022/01/07 21:39:48;;;;;;;87.12;35.88;;;;;;;-2.57;65.73;100214.88;5286866;27;36083;-77
2022/01/07 21:42:35;;;;;;;86.03;37.13;;;;;;;-2.74;66.04;100209.13;5301209;27;35093;-77
2022/01/07 21:45:22;;;;;;;98.68;40.20;;;;;;;-2.74;65.61;100213.69;5270134;27;34642;-77
2022/01/07 21:48:09;;;;;;;91.07;35.05;;;;;;;-3.00;66.75;100217.22;5302143;27;35620;-77
2022/01/07 21:50:57;;;;;;;84.95;34.42;;;;;;;-2.53;65.34;100220.66;5301086;27;35505;-77
2022/01/07 21:53:43;;;;;;;61.30;26.90;;;;;;;-2.61;65.33;100216.34;5317904;27;35204;-78
2022/01/07 21:56:35;;;;;;;58.38;25.40;;;;;;;-2.90;66.08;100214.13;5301451;27;34660;-78
2022/01/07 21:59:21;;;;;;;;;;;;;;;-2.92;66.24;100211.66;5318968;27;35014;-77
